x

Fripp Nearshore (frp 2) (41033) Weather Station

8:00am - Sat 23rd May 2015 All times are EDT. -4 hours from GMT.

  • Wind
    20mph, 22mph gusts
  • Air Temp 73°f
  • Sea Pressure 1025.9mb
  • Fripp Nearshore (frp 2)
  • Fripp Nearshore (frp 2)

More Historic Weather Station data

Upgrade to MSW Pro to gain access to the past 30 days of data for over 8000 Wavebouys and Weather Stations around the globe.

Join Pro

Comparision Forecast

View Surf forecast
   
Sat 05/23 8:00am 20 22 mph 1025.9mb 73f
7:00am 20 25 mph 1025.2mb 72f
6:00am 16 18 mph 1024.3mb 73f
5:00am 18 20 mph 1023.7mb 73f
4:00am 13 18 mph 1023.2mb 73f
3:00am 13 16 mph 1023.1mb 73f
2:00am 13 16 mph 1023.2mb 72f
1:00am 11 13 mph 1023.5mb 72f
12:00am 11 13 mph 1023.6mb 72f
Fri 05/22 11:00pm 11 13 mph 1023.5mb 73f
10:00pm 11 13 mph 1022.8mb 72f
9:00pm 11
mph
1022.4mb 72f
8:00pm 11 13 mph 1021.9mb 72f
7:00pm 13 16 mph 1021.4mb 73f
6:00pm 16 18 mph 1021.3mb 73f
5:00pm 16 18 mph 1021.2mb 73f
4:00pm 16 18 mph 1021.2mb 73f
3:00pm 16 18 mph 1021.2mb 72f
2:00pm 16 20 mph 1021.1mb 72f
1:00pm 18 20 mph 1020.9mb 72f
12:00pm 18 22 mph 1020.9mb 71f
11:00am 20 22 mph 1020.3mb 71f
10:00am 22 25 mph 1019.5mb 71f
9:00am 22 27 mph 1018.8mb 71f
8:00am 22 27 mph 1017.8mb 72f
7:00am 13 18 mph 1017.5mb 70f
6:00am 13 16 mph 1016.1mb 71f
5:00am 16 20 mph 1015.1mb 73f
4:00am 16 18 mph 1014.7mb 75f
3:00am 20 22 mph 1013.9mb 77f
2:00am 13 16 mph 1013.6mb 78f
1:00am 13 16 mph 1013.3mb 80f
12:00am 9 11 mph 1013mb 80f
Thu 05/21 11:00pm 7 9 mph 1012.6mb 79f
7:00pm 9 11 mph 1009.8mb 85f
6:00pm 13 18 mph 1009.8mb 86f
5:00pm 13 16 mph 1010mb 85f
4:00pm 16 18 mph 1010.2mb 85f
3:00pm 13
mph
1010.5mb 84f
2:00pm 11
mph
1010.8mb 82f
1:00pm 11 13 mph 1011.1mb 80f
12:00pm 13 16 mph 1011.7mb 80f
11:00am 11 16 mph 1012.1mb 78f
10:00am 13 18 mph 1011.8mb 78f
9:00am 11 13 mph 1011.8mb 78f
8:00am 13 16 mph 1011.7mb 78f
6:00am 11 13 mph 1011mb 77f
5:00am 13 18 mph 1010.7mb 76f
4:00am 18 22 mph 1010.8mb 77f
3:00am 18 20 mph 1011.2mb 78f
2:00am 13 18 mph 1012mb 78f
1:00am 16 18 mph 1012.5mb 76f
12:00am 11 13 mph 1013.2mb 76f
Wed 05/20 11:00pm 11 13 mph 1013.6mb 71f
10:00pm 13
mph
1012.4mb 76f
9:00pm 7 9 mph 1012.3mb 77f
8:00pm 9
mph
1012.1mb 79f
7:00pm 9 11 mph 1011.5mb 79f
5:00pm 9 11 mph 1013.1mb 78f
4:00pm 9 11 mph 1013mb 78f
3:00pm 11 13 mph 1013.5mb 78f
2:00pm 11 13 mph 1013.1mb 78f
1:00pm 9 11 mph 1014.3mb 78f
12:00pm 7 9 mph 1014.5mb 79f
11:00am 7 9 mph 1014.4mb 80f
10:00am 7 9 mph 1014.1mb 78f
9:00am 4 7 mph 1014.1mb 79f
6:00am 13 16 mph 1013.5mb 75f
5:00am 16 18 mph 1013.3mb 76f
4:00am 16 18 mph 1013.7mb 77f
3:00am 16 20 mph 1014.1mb 77f
2:00am 13 16 mph 1014.4mb 77f
1:00am 13
mph
1014.7mb 77f
12:00am 11 13 mph 1014.6mb 78f
Tue 05/19 10:00pm 11 13 mph 1014.6mb 77f
9:00pm 16 20 mph 1014.4mb 77f
8:00pm 16 18 mph 1014.1mb 77f
7:00pm 16 20 mph 1013.6mb 78f
6:00pm 13 18 mph 1013.6mb 79f
5:00pm 16 20 mph 1014.1mb 78f
3:00pm 11 16 mph 1016mb 79f
2:00pm 9 13 mph 1016.5mb 78f